Decoded Metar for KGRF (FORT LEWIS in WA, USA) (IATA:GRF) | Meteo·Mobile Aviation Weather
aviador You're here:

KGRF Decoded Metar

FORT LEWIS in WA, USA
Report Time2018-10-20 06:58:00
UTC Time2018-10-20 07:29:36
Flight Rules ifr IFR
WindCalm
Visibility3219 m
Phenomena:Fog
Clouds:N/A
CeilingNone
Temp05°C (ISA -9)
Dew Point05°C (100% RH)
AAT3.9°C
QNH1024 hPa
Density Alt-1,089 ft
Elevation302 ft
Report Wrong Elevation
Raw Report
KGRF 200658Z 00000KT 2SM R15/3500V4500FT FG CLR 05/05 A3024 RMK
AO2A VIS SLP246 T00540054 $=

Extra information for KGRF:More info

Metar Taf Metar & Taf Last 4 Metars F.Rules Stats Wind Profile Meteogram Temp Stats Airport Information Weather charts Add Link Nearby VenuesMetar ALERT Operation Metar Decoded Social comments

AIRNAV info for KGRF